Latest Coastal Weather Observations for Coffs Harbour

IDN60701

Issued at 10:12 am EDT Monday 22 December 2014 (issued every 10 minutes, with the page automatically refreshed every 10 minutes)

About coastal observations | Map of coastal stations | Coastal observations for NSW | Marine services | Other Formats
Station Details ID: 059040 Name: COFFS HARBOUR MO Lat: -30.31 Lon: 153.12 Height: 5.0 m
Data from the previous 72 hours. | See also: Recent months at Coffs Harbour
Date/Time
EDT
Temp

°C
Wind Pressure Rain
since 9am
mm
Weather Cloud Vis
km
Sea
Height
m
Swell
Dir
 
Speed
knots
Gust
knots
hPa Trend Height
m
Period
s
Dir
22/10:00am 24.8 ENE 10 13 1018.6 - 0.0 - Mostly clear 10 - - - -
22/09:30am 25.7 ENE 9 10 1018.4 - 0.0 - Mostly clear 10 - - - -
22/09:00am 25.3 N 8 10 1018.4 R 0.0 Fine Mostly clear 30 - - - -
22/07:00am 20.6 N 5 7 1017.7 - 0.0 - Mostly clear 10 - - - -
22/06:30am 20.2 - 1 3 1017.3 - 0.0 - - 10 - - - -
22/06:00am 18.8 WNW 4 6 1017.4 F 0.0 Fine Mostly cloudy 20 - - - -
22/05:30am 17.8 NW 6 8 1017.0 - 0.0 - - 10 - - - -
22/05:00am 18.2 NW 5 6 1016.6 - 0.0 - - 10 - - - -
22/04:30am 18.1 NNW 7 8 1016.7 - 0.0 - - 10 - - - -
22/04:00am 18.4 NW 7 8 1016.7 - 0.0 - Partly cloudy 10 - - - -
22/03:30am 18.6 NNW 6 6 1016.7 - 0.0 - Partly cloudy 10 - - - -
22/03:00am 18.6 NW 6 7 1016.9 - 0.0 - - 10 - - - -
22/02:30am 19.2 N 6 8 1016.9 - 0.0 - - 10 - - - -
22/02:00am 19.1 N 4 5 1017.1 - 0.0 - - 10 - - - -
22/01:30am 19.7 N 4 5 1017.7 - 0.0 - - 10 - - - -
22/01:00am 20.3 NNW 7 9 1018.8 - 0.0 - - 10 - - - -
22/12:30am 20.5 NW 6 8 1019.0 - 0.0 - - 10 - - - -
22/12:00am 21.8 NNW 6 8 1019.1 - 0.0 - Cloudy 10 - - - -
 
Date/Time
EDT
Temp

°C
Wind Pressure Rain
since 9am
mm
Weather Cloud Vis
km
Sea
Height
m
Swell
Dir
 
Speed
knots
Gust
knots
hPa Trend Height
m
Period
s
Dir
21/11:30pm 22.6 NNW 6 8 1019.0 - 0.0 - Cloudy 10 - - - -
21/11:00pm 22.5 NNW 6 8 1018.9 - 0.0 - Cloudy 10 - - - -
21/10:30pm 23.0 N 7 10 1018.7 - 0.0 - Cloudy 10 - - - -
21/10:00pm 23.2 NE 8 11 1018.6 - 0.0 - Cloudy 10 - - - -
21/09:30pm 23.3 NE 7 9 1018.6 - 0.0 - Cloudy 10 - - - -
21/09:00pm 23.4 NE 7 9 1018.6 - 0.0 - Cloudy 10 - - - -
21/08:30pm 23.3 NE 9 12 1018.3 - 0.0 - Cloudy 10 - - - -
21/08:00pm 23.4 NE 10 13 1017.9 - 0.0 - Cloudy 10 - - - -
21/07:30pm 23.4 NE 10 14 1017.7 - 0.0 - Cloudy 10 - - - -
21/07:00pm 23.5 NE 10 12 1017.6 - 0.0 - Cloudy 10 - - - -
21/06:30pm 23.5 NE 10 14 1017.2 - 0.0 - Cloudy 10 - - - -
21/06:00pm 23.6 NE 11 15 1016.8 - 0.0 - Cloudy 10 - - - -
21/05:30pm 23.6 NE 10 15 1017.0 - 0.0 - Cloudy 10 - - - -
21/05:00pm 24.1 NE 13 19 1016.7 - 0.0 - Partly cloudy 10 - - - -
21/04:30pm 24.5 NE 13 19 1016.6 - 0.0 - Partly cloudy 10 - - - -
21/04:02pm 24.1 ENE 16 20 1016.8 - 0.0 - Partly cloudy 10 - - - -
21/03:30pm 25.7 ENE 15 18 1017.0 - 0.0 - Partly cloudy 10 - - - -
21/03:00pm 25.1 ENE 15 20 1017.0 F 0.0 Fine Partly cloudy 20 - - - -
21/02:30pm 24.8 ENE 15 19 1017.1 - 0.0 - Mostly clear 10 - - - -
21/02:00pm 25.3 ENE 15 18 1017.3 - 0.0 - Mostly clear 10 - - - -
21/01:30pm 25.8 NE 15 20 1017.5 - 0.0 - Mostly clear 10 - - - -
21/01:00pm 25.0 ENE 15 19 1017.8 - 0.0 - Mostly clear 10 - - - -
21/12:30pm 24.8 ENE 12 16 1018.2 - 0.0 - Mostly clear 10 - - - -
21/12:00pm 24.6 ENE 12 16 1018.5 S 0.0 Fine Partly cloudy 20 - - - -
21/11:30am 24.7 ENE 8 9 1018.6 - 0.0 - Mostly cloudy 10 - - - -
21/11:00am 24.2 WNW 4 6 1018.8 - 0.0 - Partly cloudy 10 - - - -
21/10:30am 23.9 NW 6 8 1018.9 - 0.0 - Partly cloudy 10 - - - -
21/10:00am 24.9 WNW 6 8 1019.0 - 0.0 - Mostly cloudy 10 - - - -
21/09:30am 23.2 NNW 4 5 1019.1 - 0.0 - Mostly clear 10 - - - -
21/09:00am 22.9 WNW 5 7 1019.1 R 0.8 Fine Cloudy 20 - - - -
21/08:30am 21.8 WNW 5 6 1019.0 - 0.8 - Mostly clear 10 - - - -
21/08:00am 21.2 NW 5 5 1018.6 - 0.8 - Mostly clear 10 - - - -
21/07:30am 20.8 WNW 4 5 1018.4 - 0.8 - Mostly clear 10 - - - -
21/07:00am 20.0 NW 4 6 1018.0 - 0.8 - Mostly clear 10 - - - -
21/06:30am 19.5 WNW 3 4 1017.6 - 0.8 - Cloudy 10 - - - -
21/06:00am 19.2 NW 5 6 1017.4 F 0.8 Fine Mostly cloudy 20 - - - -
21/05:30am 18.9 NW 6 6 1017.0 - 0.8 - Partly cloudy 10 - - - -
21/05:00am 19.2 WNW 6 7 1017.0 - 0.8 - Partly cloudy 10 - - - -
21/04:30am 19.3 NW 5 6 1016.9 - 0.8 - Cloudy 10 - - - -
21/04:00am 19.3 WNW 6 7 1016.9 - 0.8 - Cloudy 10 - - - -
21/03:30am 19.3 WNW 6 7 1017.1 - 0.8 - Cloudy 10 - - - -
21/03:00am 19.3 WNW 5 6 1017.3 - 0.8 - Cloudy 10 - - - -
21/02:30am 19.2 NW 5 6 1017.5 - 0.8 - Partly cloudy 10 - - - -
21/02:00am 19.2 WNW 6 7 1017.9 - 0.8 - Partly cloudy 10 - - - -
21/01:35am 19.3 NW 5 6 1018.2 - 0.8 - Cloudy 10 - - - -
21/01:30am 19.3 NW 5 6 1018.4 - 0.8 - Partly cloudy 8 - - - -
21/01:00am 19.4 W 5 5 1018.7 - 0.8 - Partly cloudy 4 - - - -
21/12:54am 19.4 W 5 5 1018.9 - 0.8 - Partly cloudy 4 - - - -
21/12:30am 19.4 CALM 0 0 1019.0 - 0.8 - Partly cloudy 5 - - - -
21/12:19am 19.6 WNW 2 4 1019.1 - 0.6 - Partly cloudy 5 - - - -
21/12:00am 19.5 CALM 0 3 1019.3 - 0.6 - Cloudy 6 - - - -
 
Date/Time
EDT
Temp

°C
Wind Pressure Rain
since 9am
mm
Weather Cloud Vis
km
Sea
Height
m
Swell
Dir
 
Speed
knots
Gust
knots
hPa Trend Height
m
Period
s
Dir
20/11:59pm 19.5 CALM 0 0 1019.2 - 0.6 - Partly cloudy 6 - - - -
20/11:30pm 19.5 W 5 6 1019.3 - 0.6 - Partly cloudy 10 - - - -
20/11:11pm 19.6 WNW 4 5 1019.3 - 0.6 - Partly cloudy 9 - - - -
20/11:00pm 19.5 WNW 4 5 1019.2 - 0.6 - Partly cloudy 6 - - - -
20/10:30pm 19.7 WNW 5 6 1019.2 - 0.2 - Partly cloudy 5 - - - -
20/10:09pm 19.8 WNW 5 5 1018.9 - 0.2 - Partly cloudy 6 - - - -
20/10:00pm 19.8 - 1 4 1018.8 - 0.2 - Partly cloudy 7 - - - -
20/09:58pm 19.8 CALM 0 0 1018.8 - 0.2 - Partly cloudy 7 - - - -
20/09:30pm 20.1 E 7 9 1018.5 - 0.2 - Partly cloudy 5 - - - -
20/09:00pm 20.6 ENE 6 8 1018.2 - 0.0 - Cloudy 5 - - - -
20/08:41pm 21.3 E 8 12 1017.9 - 0.0 - Cloudy 6 - - - -
20/08:30pm 21.8 ENE 9 13 1017.6 - 0.0 - Partly cloudy 10 - - - -
20/08:00pm 22.1 E 8 10 1016.9 - 0.0 - Partly cloudy 10 - - - -
20/07:30pm 22.5 E 7 9 1016.5 - 0.0 - Cloudy 10 - - - -
20/07:00pm 22.6 E 6 8 1016.3 - 0.0 - Cloudy 10 - - - -
20/06:30pm 22.7 E 7 9 1015.9 - 0.0 - Partly cloudy 10 - - - -
20/06:00pm 22.7 E 7 9 1015.6 - 0.0 - Cloudy 10 - - - -
20/05:30pm 22.8 E 8 9 1015.3 - 0.0 - Cloudy 10 - - - -
20/05:00pm 23.1 E 7 9 1015.1 - 0.0 - Cloudy 10 - - - -
20/04:30pm 23.1 E 8 10 1015.2 - 0.0 - Partly cloudy 10 - - - -
20/04:00pm 23.9 E 9 11 1015.5 - 0.0 - Partly cloudy 10 - - - -
20/03:30pm 23.6 E 10 13 1015.9 - 0.0 - Cloudy 10 - - - -
20/03:00pm 23.2 E 9 12 1016.3 S 0.0 Haze Cloudy 20 - - - -
20/02:30pm 22.7 E 10 13 1016.4 - 0.0 - Partly cloudy 10 - - - -
20/02:00pm 23.1 E 11 15 1016.5 - 0.0 - Partly cloudy 10 - - - -
20/01:30pm 23.2 E 11 15 1016.9 - 0.0 - Partly cloudy 10 - - - -
20/01:00pm 24.1 E 12 16 1017.1 - 0.0 - Partly cloudy 10 - - - -
20/12:30pm 23.9 ESE 11 14 1017.3 - 0.0 - Partly cloudy 10 - - - -
20/12:00pm 23.9 ESE 10 14 1017.7 - 0.0 - Cloudy 10 - - - -
20/11:30am 24.2 SSE 10 14 1017.6 - 0.0 - - 10 - - - -
20/11:00am 23.9 S 11 14 1017.7 - 0.0 - Partly cloudy 10 - - - -
20/10:30am 23.9 S 11 15 1017.6 - 0.0 - - 10 - - - -
20/10:00am 22.3 S 10 13 1017.6 - 0.0 - Partly cloudy 10 - - - -
20/09:30am 22.5 S 11 15 1017.6 - 0.0 - Partly cloudy 10 - - - -
20/09:00am 22.4 SW 7 10 1017.6 R 0.0 Haze Cloudy 20 - - - -
20/08:30am 22.2 WSW 8 11 1017.1 - 0.0 - Partly cloudy 10 - - - -
20/08:00am 21.6 WSW 9 13 1017.1 - 0.0 - Partly cloudy 10 - - - -
20/07:30am 21.2 SW 9 14 1016.7 - 0.0 - Partly cloudy 10 - - - -
20/07:00am 20.3 SW 9 11 1016.4 - 0.0 - Partly cloudy 10 - - - -
20/06:30am 20.1 WSW 7 9 1016.0 - 0.0 - Partly cloudy 10 - - - -
20/06:00am 19.9 WSW 8 10 1015.8 - 0.0 - Cloudy 10 - - - -
20/05:30am 20.0 SW 9 12 1015.5 - 0.0 - Partly cloudy 10 - - - -
20/05:00am 20.2 SW 8 9 1015.3 - 0.0 - Partly cloudy 10 - - - -
20/04:30am 20.4 SW 8 10 1015.2 - 0.0 - Partly cloudy 10 - - - -
20/04:00am 20.4 SW 7 9 1015.1 - 0.0 - Partly cloudy 10 - - - -
20/03:30am 20.6 SW 8 9 1015.1 - 0.0 - Cloudy 10 - - - -
20/03:00am 20.8 WSW 8 11 1015.3 - 0.0 - Cloudy 10 - - - -
20/02:30am 20.9 SW 9 11 1015.5 - 0.0 - Partly cloudy 10 - - - -
20/02:00am 20.8 WSW 6 8 1015.6 - 0.0 - Partly cloudy 10 - - - -
20/01:30am 21.0 SW 5 7 1015.7 - 0.0 - Partly cloudy 10 - - - -
20/01:00am 21.2 SSW 8 11 1016.1 - 0.0 - Partly cloudy 10 - - - -
20/12:30am 21.7 SW 6 7 1016.2 - 0.0 - Partly cloudy 10 - - - -
20/12:00am 22.1 S 8 10 1016.5 - 0.0 - Cloudy 10 - - - -
 
Date/Time
EDT
Temp

°C
Wind Pressure Rain
since 9am
mm
Weather Cloud Vis
km
Sea
Height
m
Swell
Dir
 
Speed
knots
Gust
knots
hPa Trend Height
m
Period
s
Dir
19/11:30pm 21.9 SW 10 15 1016.5 - 0.0 - Cloudy 10 - - - -
19/11:00pm 21.8 S 9 10 1016.2 - 0.0 - Cloudy 10 - - - -
19/10:30pm 22.3 SSW 8 10 1016.0 - 0.0 - Cloudy 10 - - - -
19/10:00pm 22.9 SSE 9 13 1015.8 - 0.0 - Cloudy 10 - - - -
19/09:30pm 23.2 S 9 14 1015.2 - 0.0 - Partly cloudy 10 - - - -
19/09:00pm 23.1 SSE 10 16 1014.9 - 0.0 - Cloudy 10 - - - -
19/08:30pm 22.7 S 14 17 1014.6 - 0.0 - Partly cloudy 10 - - - -
19/08:00pm 23.2 S 11 15 1014.0 - 0.0 - Partly cloudy 10 - - - -
19/07:30pm 23.4 S 10 12 1013.6 - 0.0 - Partly cloudy 10 - - - -
19/07:00pm 23.4 S 11 14 1013.1 - 0.0 - Partly cloudy 10 - - - -
19/06:30pm 23.9 S 13 17 1012.6 - 0.0 - - 10 - - - -
19/06:00pm 24.7 S 13 17 1012.0 - 0.0 - Cloudy 10 - - - -
19/05:30pm 24.1 S 15 18 1011.7 - 0.0 - Partly cloudy 10 - - - -
19/05:00pm 24.7 S 13 17 1011.3 - 0.0 - Partly cloudy 10 - - - -
19/04:30pm 24.4 S 12 16 1011.2 - 0.0 - Partly cloudy 10 - - - -
19/04:00pm 25.2 S 14 17 1011.1 - 0.0 - Partly cloudy 10 - - - -
19/03:30pm 25.3 S 15 19 1011.1 - 0.0 - Partly cloudy 10 - - - -
19/03:00pm 25.1 S 15 19 1011.3 R 0.0 Haze Mostly clear 20 - - - -
19/02:30pm 25.5 S 14 18 1011.1 - 0.0 - Partly cloudy 10 - - - -
19/02:00pm 25.3 S 15 20 1011.2 - 0.0 - Partly cloudy 10 - - - -
19/01:30pm 25.4 S 15 20 1011.2 - 0.0 - Partly cloudy 9 - - - -
19/01:00pm 25.7 S 15 20 1011.1 - 0.0 - - 9 - - - -
19/12:30pm 25.7 - - - 1011.1 - 0.0 - Partly cloudy 9 - - - -
19/12:00pm 25.4 SSE 19 26 1010.5 - 0.0 - - 9 - - - -
19/11:30am 26.8 SSE 13 18 1010.0 - 0.0 - - 10 - - - -
19/11:00am 29.4 ESE 8 12 1009.2 - 0.0 - - 10 - - - -
19/10:30am 29.4 S 6 11 1009.1 - 0.0 - - 10 - - - -

Other Formats:

Comma delimited format used in spreadsheet applications
http://www.bom.gov.au/fwo/IDN60701/IDN60701.94791.axf

JavaScript Object Notation format (JSON) in row-major order
http://www.bom.gov.au/fwo/IDN60701/IDN60701.94791.json